CFG1XF LEPA-EDDL
Flight info
| Callsign | CFG1XF |
|---|---|
| Flight time | N/A |
| Altitude | FL360 |
| Route | MEROS LAPIT CHELY LUMAS MAXIR LUSOL BODRU OKTET IRMAR KINES VANAS MOBLO UBIMA GILIR PENDU IXILU GIVOR SORAL IBERA DIK N853 ARCKY T853 NVO T857 BIKMU |
| Aircraft | A320/M-SDE2E3FGHIRWXY/LB1 |
Departure
| Time | 2026-05-04 09:56 |
|---|---|
| Airport | Palma de Mallorca Airport (LEPA) |
Arrival
| Time | N/A |
|---|---|
| Airport | Düsseldorf Airport (EDDL) |
| Time | Latitude | Longitude | Altitude | Speed | Heading |
|---|---|---|---|---|---|
| 2026-05-04 09:11 | 39.55050 | 2.73534 | 46 ft | 0 kts | 166° |
| 2026-05-04 09:47 | 39.55055 | 2.73533 | 47 ft | 2 kts | 166° |
| 2026-05-04 09:49 | 39.55077 | 2.73478 | 47 ft | 0 kts | 58° |
| 2026-05-04 09:51 | 39.55175 | 2.73584 | 47 ft | 7 kts | 58° |
| 2026-05-04 09:51 | 39.55212 | 2.73597 | 47 ft | 7 kts | 347° |
| 2026-05-04 09:51 | 39.55261 | 2.73565 | 47 ft | 9 kts | 326° |
| 2026-05-04 09:51 | 39.55321 | 2.73515 | 48 ft | 12 kts | 328° |
| 2026-05-04 09:52 | 39.55407 | 2.73451 | 48 ft | 16 kts | 342° |
| 2026-05-04 09:52 | 39.55482 | 2.73527 | 48 ft | 15 kts | 65° |
| 2026-05-04 09:52 | 39.55561 | 2.73542 | 49 ft | 14 kts | 322° |
| 2026-05-04 09:52 | 39.55646 | 2.73502 | 49 ft | 14 kts | 28° |
| 2026-05-04 09:53 | 39.55705 | 2.73602 | 49 ft | 14 kts | 59° |
| 2026-05-04 09:53 | 39.55757 | 2.73715 | 49 ft | 15 kts | 60° |
| 2026-05-04 09:53 | 39.55810 | 2.73835 | 50 ft | 16 kts | 61° |
| 2026-05-04 09:53 | 39.55864 | 2.73957 | 50 ft | 16 kts | 59° |
| 2026-05-04 09:54 | 39.55923 | 2.74082 | 50 ft | 16 kts | 58° |
| 2026-05-04 09:54 | 39.55988 | 2.74203 | 51 ft | 16 kts | 38° |
| 2026-05-04 09:54 | 39.56081 | 2.74292 | 51 ft | 17 kts | 36° |
| 2026-05-04 09:54 | 39.56140 | 2.74342 | 51 ft | 4 kts | 32° |
| 2026-05-04 09:55 | 39.56169 | 2.74363 | 51 ft | 5 kts | 19° |
| 2026-05-04 09:55 | 39.56208 | 2.74349 | 52 ft | 8 kts | 325° |
| 2026-05-04 09:55 | 39.56228 | 2.74269 | 51 ft | 13 kts | 238° |
| 2026-05-04 09:55 | 39.56101 | 2.74004 | 51 ft | 69 kts | 239° |
| 2026-05-04 09:56 | 39.55763 | 2.73278 | 50 ft | 128 kts | 238° |
| 2026-05-04 09:56 | 39.55253 | 2.72188 | 65 ft | 172 kts | 239° |
| 2026-05-04 09:56 | 39.54660 | 2.70918 | 454 ft | 181 kts | 238° |
| 2026-05-04 09:56 | 39.54020 | 2.69611 | 976 ft | 187 kts | 236° |
| 2026-05-04 09:57 | 39.53293 | 2.68370 | 1627 ft | 188 kts | 221° |
| 2026-05-04 09:57 | 39.52226 | 2.67696 | 2265 ft | 190 kts | 187° |
| 2026-05-04 09:57 | 39.50988 | 2.67987 | 2746 ft | 202 kts | 162° |
| 2026-05-04 09:57 | 39.49696 | 2.68669 | 3197 ft | 217 kts | 159° |
| 2026-05-04 09:58 | 39.48277 | 2.69317 | 3703 ft | 229 kts | 175° |
| 2026-05-04 09:58 | 39.46867 | 2.69141 | 4466 ft | 224 kts | 202° |
| 2026-05-04 09:58 | 39.45611 | 2.68353 | 5248 ft | 222 kts | 210° |
| 2026-05-04 10:00 | 39.35686 | 2.63121 | 9751 ft | 273 kts | 169° |
| 2026-05-04 10:00 | 39.34006 | 2.64153 | 10220 ft | 292 kts | 144° |
| 2026-05-04 10:02 | 39.26483 | 2.81759 | 12330 ft | 408 kts | 90° |
| 2026-05-04 10:04 | 39.33339 | 3.04752 | 15555 ft | 441 kts | 57° |
| 2026-05-04 10:04 | 39.34895 | 3.08111 | 15997 ft | 445 kts | 58° |
| 2026-05-04 10:04 | 39.36441 | 3.11533 | 16431 ft | 450 kts | 58° |
| 2026-05-04 10:04 | 39.37984 | 3.14985 | 16817 ft | 455 kts | 58° |
| 2026-05-04 10:05 | 39.39526 | 3.18453 | 17257 ft | 458 kts | 58° |
| 2026-05-04 10:05 | 39.41055 | 3.21898 | 17653 ft | 462 kts | 58° |
| 2026-05-04 10:05 | 39.42606 | 3.25396 | 18051 ft | 466 kts | 58° |
| 2026-05-04 10:05 | 39.44182 | 3.28882 | 18435 ft | 469 kts | 57° |
| 2026-05-04 10:06 | 39.45821 | 3.32437 | 18815 ft | 472 kts | 57° |
| 2026-05-04 10:06 | 39.47479 | 3.36015 | 19236 ft | 474 kts | 57° |
| 2026-05-04 10:06 | 39.49193 | 3.39721 | 19771 ft | 473 kts | 57° |
| 2026-05-04 10:08 | 39.59511 | 3.62232 | 21958 ft | 491 kts | 59° |
| 2026-05-04 10:08 | 39.61287 | 3.66129 | 22284 ft | 494 kts | 59° |
| 2026-05-04 10:08 | 39.63092 | 3.70088 | 22639 ft | 496 kts | 60° |
| 2026-05-04 10:08 | 39.64904 | 3.74079 | 22957 ft | 498 kts | 59° |
| 2026-05-04 10:09 | 39.66612 | 3.77840 | 23229 ft | 501 kts | 60° |
| 2026-05-04 10:09 | 39.68296 | 3.81553 | 23510 ft | 504 kts | 60° |
| 2026-05-04 10:09 | 39.70053 | 3.85433 | 23780 ft | 507 kts | 60° |
| 2026-05-04 10:09 | 39.71842 | 3.89383 | 24069 ft | 510 kts | 60° |
| 2026-05-04 10:10 | 39.73640 | 3.93360 | 24371 ft | 512 kts | 60° |
| 2026-05-04 10:10 | 39.75428 | 3.97316 | 24631 ft | 515 kts | 60° |
| 2026-05-04 10:10 | 39.77227 | 4.01302 | 24911 ft | 517 kts | 60° |
| 2026-05-04 10:10 | 39.79034 | 4.05318 | 25191 ft | 519 kts | 59° |
| 2026-05-04 10:11 | 39.80853 | 4.09365 | 25433 ft | 521 kts | 60° |
| 2026-05-04 10:11 | 39.82683 | 4.13436 | 25695 ft | 523 kts | 60° |
| 2026-05-04 10:11 | 39.84577 | 4.17498 | 25928 ft | 525 kts | 54° |
| 2026-05-04 10:11 | 39.87092 | 4.20934 | 26083 ft | 524 kts | 34° |
| 2026-05-04 10:12 | 39.90320 | 4.23181 | 26304 ft | 513 kts | 13° |
| 2026-05-04 10:12 | 39.93761 | 4.24199 | 26685 ft | 503 kts | 3° |
| 2026-05-04 10:12 | 39.97318 | 4.24826 | 27028 ft | 501 kts | 1° |
| 2026-05-04 10:12 | 40.00813 | 4.25401 | 27329 ft | 502 kts | 1° |
| 2026-05-04 10:13 | 40.04250 | 4.26034 | 27642 ft | 502 kts | 2° |
| 2026-05-04 10:13 | 40.07567 | 4.26715 | 27957 ft | 503 kts | 3° |
| 2026-05-04 10:13 | 40.10921 | 4.27455 | 28264 ft | 503 kts | 4° |
| 2026-05-04 10:13 | 40.14333 | 4.28237 | 28516 ft | 504 kts | 4° |
| 2026-05-04 10:14 | 40.17788 | 4.29048 | 28757 ft | 505 kts | 4° |
| 2026-05-04 10:14 | 40.21200 | 4.29855 | 29061 ft | 504 kts | 4° |
| 2026-05-04 10:16 | 40.45211 | 4.35545 | 30987 ft | 504 kts | 4° |
| 2026-05-04 10:16 | 40.48658 | 4.36365 | 31285 ft | 503 kts | 4° |
| 2026-05-04 10:16 | 40.52091 | 4.37189 | 31612 ft | 501 kts | 3° |
| 2026-05-04 10:16 | 40.55510 | 4.38010 | 31953 ft | 499 kts | 4° |
| 2026-05-04 10:17 | 40.58923 | 4.38825 | 32266 ft | 498 kts | 3° |
| 2026-05-04 10:17 | 40.62333 | 4.39644 | 32559 ft | 498 kts | 3° |
| 2026-05-04 10:19 | 40.86437 | 4.45423 | 34290 ft | 497 kts | 2° |
| 2026-05-04 10:19 | 40.89861 | 4.46248 | 34442 ft | 499 kts | 2° |
| 2026-05-04 10:19 | 40.93300 | 4.47080 | 34565 ft | 500 kts | 2° |
| 2026-05-04 10:19 | 40.96714 | 4.47907 | 34718 ft | 501 kts | 2° |
| 2026-05-04 10:20 | 41.00142 | 4.48736 | 34878 ft | 501 kts | 2° |
| 2026-05-04 10:20 | 41.03574 | 4.49572 | 35054 ft | 501 kts | 2° |
| 2026-05-04 10:20 | 41.06989 | 4.50404 | 35244 ft | 500 kts | 3° |
| 2026-05-04 10:20 | 41.10405 | 4.51234 | 35392 ft | 500 kts | 2° |
| 2026-05-04 10:21 | 41.13854 | 4.52079 | 35532 ft | 500 kts | 2° |
| 2026-05-04 10:21 | 41.17281 | 4.52919 | 35697 ft | 499 kts | 2° |
| 2026-05-04 10:21 | 41.20700 | 4.53753 | 35810 ft | 499 kts | 3° |
| 2026-05-04 10:21 | 41.24168 | 4.54597 | 35882 ft | 500 kts | 3° |
| 2026-05-04 10:22 | 41.34476 | 4.57119 | 35967 ft | 498 kts | 3° |
| 2026-05-04 10:23 | 41.41284 | 4.58788 | 35966 ft | 496 kts | 3° |
| 2026-05-04 10:25 | 41.68259 | 4.65707 | 35961 ft | 502 kts | 9° |
| 2026-05-04 10:25 | 41.74869 | 4.68717 | 35964 ft | 510 kts | 18° |
| 2026-05-04 10:26 | 41.81255 | 4.72931 | 35967 ft | 515 kts | 25° |
| 2026-05-04 10:26 | 41.87370 | 4.77860 | 35971 ft | 514 kts | 27° |
| 2026-05-04 10:27 | 41.93451 | 4.82844 | 35967 ft | 514 kts | 27° |
| 2026-05-04 10:27 | 41.99530 | 4.87787 | 35971 ft | 513 kts | 27° |
| 2026-05-04 10:28 | 42.05620 | 4.92726 | 35975 ft | 511 kts | 27° |
| 2026-05-04 10:28 | 42.11690 | 4.97652 | 35982 ft | 512 kts | 27° |
| 2026-05-04 10:29 | 42.17761 | 5.02588 | 35978 ft | 512 kts | 27° |
| 2026-05-04 10:29 | 42.23841 | 5.07549 | 35986 ft | 511 kts | 27° |
| 2026-05-04 10:30 | 42.29905 | 5.12503 | 35987 ft | 510 kts | 27° |
| 2026-05-04 10:30 | 42.35944 | 5.17449 | 35985 ft | 510 kts | 27° |
| 2026-05-04 10:31 | 42.41985 | 5.22406 | 35986 ft | 509 kts | 27° |
| 2026-05-04 10:32 | 42.63045 | 5.39779 | 35999 ft | 507 kts | 27° |
| 2026-05-04 10:33 | 42.69043 | 5.44756 | 35998 ft | 506 kts | 27° |
| 2026-05-04 10:33 | 42.75040 | 5.49739 | 36006 ft | 505 kts | 27° |
| 2026-05-04 10:34 | 42.81030 | 5.54727 | 36004 ft | 505 kts | 27° |
| 2026-05-04 10:34 | 42.87127 | 5.59819 | 36011 ft | 504 kts | 27° |
| 2026-05-04 10:35 | 42.93204 | 5.64904 | 36008 ft | 503 kts | 27° |
| 2026-05-04 10:35 | 42.99146 | 5.69886 | 36012 ft | 502 kts | 28° |
| 2026-05-04 10:36 | 43.05065 | 5.74862 | 36012 ft | 502 kts | 28° |
| 2026-05-04 10:36 | 43.10995 | 5.79858 | 36011 ft | 502 kts | 28° |
| 2026-05-04 10:37 | 43.16916 | 5.84858 | 36022 ft | 502 kts | 28° |
| 2026-05-04 10:37 | 43.22827 | 5.89860 | 36026 ft | 501 kts | 28° |
| 2026-05-04 10:39 | 43.41102 | 6.03113 | 36036 ft | 490 kts | 11° |
| 2026-05-04 10:39 | 43.44388 | 6.04254 | 36038 ft | 487 kts | 6° |
| 2026-05-04 10:40 | 43.51027 | 6.05418 | 36039 ft | 481 kts | 358° |
| 2026-05-04 10:40 | 43.57684 | 6.05975 | 36037 ft | 481 kts | 358° |
| 2026-05-04 10:41 | 43.64352 | 6.06586 | 36034 ft | 481 kts | 358° |
| 2026-05-04 10:41 | 43.71008 | 6.07444 | 36035 ft | 485 kts | 3° |
| 2026-05-04 10:42 | 43.77624 | 6.09387 | 36045 ft | 490 kts | 11° |
| 2026-05-04 10:42 | 43.84052 | 6.12559 | 36044 ft | 495 kts | 20° |
| 2026-05-04 10:43 | 43.90248 | 6.16691 | 36048 ft | 496 kts | 22° |
| 2026-05-04 10:45 | 44.14873 | 6.33672 | 36062 ft | 495 kts | 23° |
| 2026-05-04 10:45 | 44.21017 | 6.37907 | 36070 ft | 494 kts | 23° |
| 2026-05-04 10:46 | 44.27150 | 6.42148 | 36088 ft | 493 kts | 23° |
| 2026-05-04 10:46 | 44.33272 | 6.46387 | 36088 ft | 493 kts | 23° |
| 2026-05-04 10:47 | 44.39394 | 6.50634 | 36091 ft | 493 kts | 23° |
| 2026-05-04 10:47 | 44.45506 | 6.54884 | 36073 ft | 493 kts | 23° |
| 2026-05-04 10:49 | 44.69941 | 6.71981 | 36104 ft | 492 kts | 24° |
| 2026-05-04 10:50 | 44.76169 | 6.75783 | 36120 ft | 488 kts | 15° |
| 2026-05-04 10:51 | 44.99240 | 6.77903 | 36090 ft | 476 kts | 353° |
| 2026-05-04 10:52 | 45.02533 | 6.77653 | 36095 ft | 476 kts | 353° |
| 2026-05-04 10:52 | 45.09131 | 6.77188 | 36090 ft | 476 kts | 353° |
| 2026-05-04 10:54 | 45.35007 | 6.75439 | 36082 ft | 480 kts | 353° |
| 2026-05-04 10:56 | 45.61260 | 6.73671 | 36073 ft | 482 kts | 354° |
| 2026-05-04 10:57 | 45.67846 | 6.73216 | 36071 ft | 482 kts | 354° |
| 2026-05-04 10:57 | 45.74464 | 6.72755 | 36065 ft | 483 kts | 354° |
| 2026-05-04 10:58 | 45.81120 | 6.72293 | 36068 ft | 484 kts | 354° |
| 2026-05-04 10:58 | 45.87787 | 6.71846 | 36061 ft | 484 kts | 354° |
| 2026-05-04 10:59 | 45.94441 | 6.71397 | 36054 ft | 484 kts | 354° |
| 2026-05-04 10:59 | 46.01111 | 6.70939 | 36049 ft | 484 kts | 354° |
| 2026-05-04 11:00 | 46.07766 | 6.70384 | 36037 ft | 483 kts | 351° |
| 2026-05-04 11:01 | 46.29930 | 6.61829 | 36039 ft | 477 kts | 337° |
| 2026-05-04 11:02 | 46.33049 | 6.60289 | 36034 ft | 477 kts | 337° |
| 2026-05-04 11:05 | 46.80090 | 6.37097 | 35990 ft | 478 kts | 337° |
| 2026-05-04 11:06 | 46.86363 | 6.33972 | 36002 ft | 478 kts | 336° |
| 2026-05-04 11:06 | 46.92642 | 6.30834 | 36002 ft | 479 kts | 336° |
| 2026-05-04 11:10 | 47.35305 | 6.04911 | 36006 ft | 484 kts | 343° |
| 2026-05-04 11:12 | 47.58947 | 6.03831 | 36010 ft | 492 kts | 358° |
| 2026-05-04 11:12 | 47.62355 | 6.03916 | 36002 ft | 491 kts | 358° |
| 2026-05-04 11:12 | 47.69172 | 6.04107 | 36005 ft | 492 kts | 360° |
| 2026-05-04 11:13 | 47.75972 | 6.05131 | 36008 ft | 494 kts | 7° |
| 2026-05-04 11:13 | 47.82674 | 6.07311 | 36011 ft | 495 kts | 12° |
| 2026-05-04 11:14 | 47.89318 | 6.09869 | 36008 ft | 495 kts | 13° |
| 2026-05-04 11:16 | 48.15892 | 6.19985 | 35981 ft | 495 kts | 12° |
| 2026-05-04 11:16 | 48.22543 | 6.22518 | 35994 ft | 495 kts | 12° |
| 2026-05-04 11:17 | 48.29205 | 6.25062 | 35986 ft | 495 kts | 12° |
| 2026-05-04 11:19 | 48.55818 | 6.35288 | 35991 ft | 494 kts | 12° |
| 2026-05-04 11:19 | 48.62455 | 6.37821 | 35993 ft | 493 kts | 10° |
| 2026-05-04 11:20 | 48.69179 | 6.39537 | 35999 ft | 489 kts | 3° |
| 2026-05-04 11:20 | 48.75938 | 6.40301 | 36005 ft | 488 kts | 0° |
| 2026-05-04 11:22 | 49.03172 | 6.42951 | 36006 ft | 487 kts | 359° |
| 2026-05-04 11:23 | 49.09896 | 6.42895 | 36010 ft | 484 kts | 352° |
| 2026-05-04 11:24 | 49.29375 | 6.36493 | 36000 ft | 478 kts | 340° |
| 2026-05-04 11:25 | 49.32579 | 6.35146 | 35998 ft | 478 kts | 340° |
| 2026-05-04 11:25 | 49.39001 | 6.32470 | 35994 ft | 478 kts | 340° |
| 2026-05-04 11:27 | 49.69073 | 6.29814 | 36005 ft | 490 kts | 1° |
| 2026-05-04 11:28 | 49.75883 | 6.30545 | 36001 ft | 490 kts | 0° |
| 2026-05-04 11:28 | 49.82703 | 6.31258 | 35997 ft | 490 kts | 0° |
| 2026-05-04 11:29 | 49.89456 | 6.32584 | 35866 ft | 487 kts | 8° |
| 2026-05-04 11:29 | 49.92778 | 6.33599 | 35372 ft | 486 kts | 8° |
| 2026-05-04 11:29 | 49.96112 | 6.34626 | 34514 ft | 491 kts | 8° |
| 2026-05-04 11:31 | 50.20063 | 6.41401 | 27274 ft | 508 kts | 8° |
| 2026-05-04 11:33 | 50.42933 | 6.47841 | 22141 ft | 465 kts | 8° |
| 2026-05-04 11:33 | 50.45893 | 6.48676 | 21590 ft | 460 kts | 8° |
| 2026-05-04 11:33 | 50.48875 | 6.49519 | 21034 ft | 454 kts | 9° |
| 2026-05-04 11:34 | 50.51831 | 6.50361 | 20469 ft | 449 kts | 9° |
| 2026-05-04 11:34 | 50.54721 | 6.51185 | 19913 ft | 445 kts | 9° |
| 2026-05-04 11:34 | 50.57542 | 6.51987 | 19360 ft | 441 kts | 9° |
| 2026-05-04 11:34 | 50.60342 | 6.52785 | 18794 ft | 437 kts | 9° |
| 2026-05-04 11:35 | 50.63116 | 6.53575 | 18257 ft | 433 kts | 9° |
| 2026-05-04 11:35 | 50.65870 | 6.54360 | 17712 ft | 429 kts | 9° |
| 2026-05-04 11:35 | 50.68631 | 6.55149 | 17145 ft | 426 kts | 9° |
| 2026-05-04 11:35 | 50.71390 | 6.55938 | 16584 ft | 422 kts | 9° |
| 2026-05-04 11:36 | 50.74155 | 6.56729 | 16031 ft | 419 kts | 9° |
| 2026-05-04 11:36 | 50.76905 | 6.57515 | 15456 ft | 416 kts | 9° |
| 2026-05-04 11:36 | 50.79627 | 6.58294 | 14897 ft | 413 kts | 9° |
| 2026-05-04 11:36 | 50.82308 | 6.59065 | 14351 ft | 409 kts | 9° |
| 2026-05-04 11:37 | 50.84933 | 6.59821 | 13810 ft | 406 kts | 9° |
| 2026-05-04 11:37 | 50.87559 | 6.60579 | 13278 ft | 402 kts | 9° |
| 2026-05-04 11:37 | 50.90148 | 6.61327 | 12751 ft | 398 kts | 9° |
| 2026-05-04 11:37 | 50.92719 | 6.62069 | 12221 ft | 394 kts | 9° |
| 2026-05-04 11:38 | 50.95298 | 6.62813 | 11691 ft | 389 kts | 9° |
| 2026-05-04 11:38 | 50.97770 | 6.63527 | 11332 ft | 379 kts | 9° |
| 2026-05-04 11:38 | 51.00181 | 6.64227 | 11125 ft | 365 kts | 9° |
| 2026-05-04 11:38 | 51.02513 | 6.64903 | 10940 ft | 352 kts | 9° |
| 2026-05-04 11:39 | 51.04760 | 6.65564 | 10743 ft | 340 kts | 10° |
| 2026-05-04 11:39 | 51.06942 | 6.66214 | 10555 ft | 328 kts | 10° |
| 2026-05-04 11:40 | 51.16107 | 6.77321 | 9217 ft | 288 kts | 50° |
| 2026-05-04 11:41 | 51.17336 | 6.79622 | 8866 ft | 287 kts | 49° |
| 2026-05-04 11:41 | 51.18583 | 6.81936 | 8472 ft | 288 kts | 49° |
| 2026-05-04 11:41 | 51.19833 | 6.84244 | 8113 ft | 287 kts | 49° |
| 2026-05-04 11:41 | 51.21091 | 6.86563 | 7768 ft | 286 kts | 49° |
| 2026-05-04 11:42 | 51.22360 | 6.88901 | 7436 ft | 284 kts | 49° |
| 2026-05-04 11:42 | 51.23604 | 6.91193 | 7105 ft | 283 kts | 49° |
| 2026-05-04 11:42 | 51.24852 | 6.93492 | 6780 ft | 281 kts | 49° |
| 2026-05-04 11:42 | 51.26103 | 6.95800 | 6452 ft | 280 kts | 50° |
| 2026-05-04 11:43 | 51.27339 | 6.98081 | 6130 ft | 278 kts | 50° |
| 2026-05-04 11:43 | 51.28575 | 7.00366 | 5808 ft | 276 kts | 50° |
| 2026-05-04 11:43 | 51.29810 | 7.02652 | 5484 ft | 275 kts | 49° |
| 2026-05-04 11:43 | 51.31033 | 7.04919 | 5165 ft | 273 kts | 49° |
| 2026-05-04 11:44 | 51.32251 | 7.07178 | 4843 ft | 271 kts | 49° |
| 2026-05-04 11:44 | 51.33464 | 7.09426 | 4519 ft | 270 kts | 48° |
| 2026-05-04 11:44 | 51.34882 | 7.11288 | 4157 ft | 268 kts | 21° |
| 2026-05-04 11:44 | 51.36638 | 7.11707 | 3835 ft | 264 kts | 351° |
| 2026-05-04 11:45 | 51.38186 | 7.10809 | 3530 ft | 260 kts | 325° |
| 2026-05-04 11:45 | 51.39527 | 7.09173 | 3243 ft | 257 kts | 320° |
| 2026-05-04 11:45 | 51.40566 | 7.07245 | 3118 ft | 246 kts | 295° |
| 2026-05-04 11:45 | 51.40905 | 7.04887 | 3069 ft | 232 kts | 265° |
| 2026-05-04 11:46 | 51.40606 | 7.02585 | 3021 ft | 219 kts | 248° |
| 2026-05-04 11:46 | 51.39933 | 7.00505 | 3015 ft | 217 kts | 237° |
| 2026-05-04 11:46 | 51.39101 | 6.98542 | 3001 ft | 204 kts | 234° |
| 2026-05-04 11:46 | 51.38245 | 6.96698 | 2909 ft | 199 kts | 232° |
| 2026-05-04 11:47 | 51.37426 | 6.94993 | 2717 ft | 193 kts | 233° |
| 2026-05-04 11:47 | 51.36643 | 6.93372 | 2484 ft | 181 kts | 233° |
| 2026-05-04 11:47 | 51.35910 | 6.91850 | 2237 ft | 168 kts | 233° |
| 2026-05-04 11:47 | 51.35237 | 6.90447 | 2008 ft | 155 kts | 233° |
| 2026-05-04 11:48 | 51.34619 | 6.89154 | 1781 ft | 142 kts | 233° |
| 2026-05-04 11:48 | 51.34050 | 6.87962 | 1587 ft | 134 kts | 233° |
| 2026-05-04 11:48 | 51.33497 | 6.86815 | 1432 ft | 133 kts | 232° |
| 2026-05-04 11:48 | 51.32935 | 6.85731 | 1258 ft | 131 kts | 230° |
| 2026-05-04 11:49 | 51.32381 | 6.84630 | 1132 ft | 134 kts | 236° |
| 2026-05-04 11:49 | 51.31889 | 6.83469 | 1050 ft | 134 kts | 236° |
| 2026-05-04 11:49 | 51.31349 | 6.82191 | 832 ft | 131 kts | 234° |
| 2026-05-04 11:49 | 51.30824 | 6.81126 | 613 ft | 130 kts | 228° |
| 2026-05-04 11:50 | 51.30271 | 6.80075 | 454 ft | 132 kts | 233° |
| 2026-05-04 11:50 | 51.29745 | 6.78936 | 341 ft | 137 kts | 232° |
| 2026-05-04 11:50 | 51.29210 | 6.77827 | 168 ft | 132 kts | 233° |
| 2026-05-04 11:50 | 51.28751 | 6.76872 | 150 ft | 96 kts | 237° |
| 2026-05-04 11:51 | 51.28463 | 6.76253 | 150 ft | 61 kts | 232° |